Thursday, July 31, 2014
23:49 UTC
  |  Log In   |  Register Free
Airport Search:

Foothills Regional Airport
(KMRN)

Foothills Regional Airport Diagram
No Airport Diagram Available

FAA data valid effective July 24, 2014 until September 18, 2014 (unless otherwise noted).

 
 
 
 
 
 
 
 
 
 
 
 
 
 

Current Aviation Weather for Foothills Regional Airport (KMRN)

The most recent METAR observation for KMRN was updated at: 1835 UTC
METAR Summary (Translated METAR)
KMRN
281835Z AUTO 30006G17KT 10SM BKN060 28/12 A2993 RMK AO2 T02760124
KHKY
(11.8 nm SE from KMRN)
281753Z 29011G20KT 10SM CLR 29/14 A2987 RMK AO2 SLP089 T02940139 10294 20206 50005
TAF Summary (Translated TAF)
KHKY
(11.8 nm SE from KMRN)
311841Z 3118/0118 VRB03KT P6SM FEW008 SCT035 OVC100 TEMPO 3119/3122 6SM -TSRA SCT008 OVC035CB FM312200 05003KT P6SM -SHRA OVC060 FM010700 05003KT 6SM BR OVC019 FM010900 04003KT 2SM -SHRA BR OVC009 FM011400 08005KT P6SM -SHRA SCT010 OVC090
  Airport Weather Conditions for KMRN

 Current Weather at MRN
70° F
Overcast
West winds at 3.5 mph
MRN NOAA Radar

Pressure: 30.21 in
Humidity: 86%
Wind: West at 3.5 MPH (3 KT)
Dew Point: 65.3°F
Visibility: 10.00 mi


Airport Weather Forecast for KMRN

Translated METAR and TAF for KMRN
Translated METAR for KMRN (2342 UTC 31 July 2014)
found at http://aviationweather.gov/adds/metars/
 
METAR text: KMRN 312335Z AUTO 00000KT 10SM SCT110 20/18 A3021 RMK AO2 T02030184
Conditions at: KMRN (MORGANTON/LENOIR, NC, US) observed 2335 UTC 31 July 2014
Temperature: 20.3°C (69°F)
Dewpoint: 18.4°C (65°F) [RH = 89%]
Pressure (altimeter): 30.21 inches Hg (1023.1 mb)
Winds: calm
Visibility: 10 or more miles (16+ km)
Ceiling: at least 12,000 feet AGL
Clouds: scattered clouds at 11000 feet AGL
Weather: automated observation with no human augmentation;
there may or may not be significant weather present at this time
Translated TAF for KMRN

There is no translated TAF available for this airport

Find All Airport Services Find A Hotel Find A Rental Car Find A Golf Course Find A Restaurant $100 Hamburger



FBO's on the Field
FBO Company Facility Photos Services Transportation Aviation Fuel Prices: Prices include tax
Catering Weather Repair Courtesy Rental Type 100LL JetA JetA+ MOGAS 8087
 
Foothills Aviation

This FBO has not yet been rated
FS:Shell
Last Updated: Jul-17
Login to update fuel prices
SS:
Contact Foothills AviationMore FBO Information
 
Add another FBO Facility Photos Catering Weather Repair Courtesy Rental Type 100LL JetA JetA+ MOGAS 8087
Services Transportation Aviation Fuel Prices: Prices include tax


GlobalAir.com Airport Resource Center model-print
model-print
model-print
model-print